createdAt,value
2022-09-23T00:01:10.589Z,6.90
2022-09-23T00:03:41.437Z,6.90
2022-09-23T00:06:11.088Z,6.90
2022-09-23T00:08:38.693Z,6.90
2022-09-23T00:11:24.301Z,6.90
2022-09-23T00:13:53.619Z,6.80
2022-09-23T00:16:24.100Z,6.80
2022-09-23T00:18:51.000Z,6.70
2022-09-23T00:21:19.144Z,6.80
2022-09-23T00:23:46.293Z,6.80
2022-09-23T00:26:16.723Z,6.80
2022-09-23T00:28:43.587Z,6.70
2022-09-23T00:31:16.505Z,6.60
2022-09-23T00:33:43.621Z,6.50
2022-09-23T00:36:12.392Z,6.60
2022-09-23T00:38:39.232Z,6.60
2022-09-23T00:41:06.431Z,6.50
2022-09-23T00:43:53.121Z,6.50
2022-09-23T00:46:35.304Z,6.50
2022-09-23T00:49:07.693Z,6.40
2022-09-23T00:51:39.702Z,6.40
2022-09-23T00:54:07.734Z,6.40
2022-09-23T00:56:35.644Z,6.40
2022-09-23T00:59:03.092Z,6.30
2022-09-23T01:01:29.941Z,6.30
2022-09-23T01:03:58.092Z,6.20
2022-09-23T01:06:25.292Z,6.20
2022-09-23T01:08:52.531Z,6.20
2022-09-23T01:11:38.027Z,6.20
2022-09-23T01:14:35.176Z,6.10
2022-09-23T01:17:20.941Z,6.10
2022-09-23T01:20:24.348Z,6.10
2022-09-23T01:23:12.200Z,6.10
2022-09-23T01:25:57.657Z,6.20
2022-09-23T01:28:40.831Z,6.10
2022-09-23T01:31:39.390Z,6.20
2022-09-23T01:34:26.562Z,6.20
2022-09-23T01:37:11.520Z,6.30
2022-09-23T01:39:52.680Z,6.30
2022-09-23T01:42:27.117Z,6.30
2022-09-23T01:45:06.054Z,6.30
2022-09-23T01:47:42.312Z,6.30
2022-09-23T01:50:42.244Z,6.20
2022-09-23T01:53:33.382Z,6.30
2022-09-23T01:56:05.172Z,6.30
2022-09-23T01:58:54.311Z,6.20
2022-09-23T02:01:37.798Z,6.20
2022-09-23T02:04:09.017Z,6.20
2022-09-23T02:06:49.143Z,6.20
2022-09-23T02:09:20.116Z,6.30
2022-09-23T02:11:49.037Z,6.10
2022-09-23T02:14:31.473Z,6.10
2022-09-23T02:17:05.882Z,6.10
2022-09-23T02:19:47.835Z,6.10
2022-09-23T02:22:27.804Z,6.10
2022-09-23T02:24:57.411Z,5.90
2022-09-23T02:27:37.121Z,6.00
2022-09-23T02:30:13.540Z,6.00
2022-09-23T02:32:54.164Z,6.00
2022-09-23T02:35:33.775Z,6.10
2022-09-23T02:38:20.430Z,6.10
2022-09-23T02:40:58.689Z,6.00
2022-09-23T02:43:36.557Z,6.00
2022-09-23T02:46:06.012Z,6.00
2022-09-23T02:48:43.346Z,5.90
2022-09-23T02:51:10.406Z,6.00
2022-09-23T02:53:37.722Z,6.00
2022-09-23T02:56:19.651Z,6.00
2022-09-23T02:58:51.845Z,6.10
2022-09-23T03:01:32.752Z,6.10
2022-09-23T03:04:16.307Z,6.10
2022-09-23T03:06:57.113Z,6.00
2022-09-23T03:09:32.382Z,6.00
2022-09-23T03:12:11.119Z,6.00
2022-09-23T03:14:54.296Z,5.90
2022-09-23T03:17:29.932Z,5.90
2022-09-23T03:20:07.196Z,5.90
2022-09-23T03:22:40.669Z,6.00
2022-09-23T03:25:12.898Z,6.00
2022-09-23T03:27:42.456Z,5.90
2022-09-23T03:30:10.598Z,6.00
2022-09-23T03:32:39.269Z,5.90
2022-09-23T03:35:06.814Z,5.90
2022-09-23T03:37:39.320Z,5.90
2022-09-23T03:40:18.020Z,5.90
2022-09-23T03:42:46.551Z,5.80
2022-09-23T03:45:18.453Z,5.80
2022-09-23T03:47:45.281Z,5.70
2022-09-23T03:50:19.143Z,5.70
2022-09-23T03:52:46.404Z,5.80
2022-09-23T03:55:13.423Z,5.80
2022-09-23T03:57:40.151Z,5.80
2022-09-23T04:00:07.919Z,5.80
2022-09-23T04:02:41.544Z,5.70
2022-09-23T04:05:10.281Z,5.70
2022-09-23T04:07:37.088Z,5.80
2022-09-23T04:10:05.083Z,5.70
2022-09-23T04:12:31.787Z,5.70
2022-09-23T04:14:58.699Z,5.70
2022-09-23T04:17:25.409Z,5.70
2022-09-23T04:19:52.119Z,5.60
2022-09-23T04:22:18.936Z,5.70
2022-09-23T04:24:45.720Z,5.70
2022-09-23T04:27:12.403Z,5.70
2022-09-23T04:29:39.101Z,5.70
2022-09-23T04:32:05.800Z,5.80
2022-09-23T04:34:32.497Z,5.80
2022-09-23T04:36:59.193Z,5.80
2022-09-23T04:39:25.913Z,5.70
2022-09-23T04:41:52.643Z,5.70
2022-09-23T04:44:21.098Z,5.70
2022-09-23T04:46:48.322Z,5.70
2022-09-23T04:49:16.053Z,5.80
2022-09-23T04:51:43.636Z,5.70
2022-09-23T04:54:12.170Z,5.70
2022-09-23T04:56:39.786Z,5.70
2022-09-23T04:59:07.563Z,5.70
2022-09-23T05:01:36.481Z,5.80
2022-09-23T05:04:06.627Z,5.80
2022-09-23T05:06:34.956Z,5.70
2022-09-23T05:09:03.063Z,5.60
2022-09-23T05:11:31.489Z,5.70
2022-09-23T05:13:58.834Z,5.80
2022-09-23T05:16:27.082Z,5.90
2022-09-23T05:18:54.594Z,6.00
2022-09-23T05:21:23.548Z,6.10
2022-09-23T05:23:55.606Z,6.10
2022-09-23T05:26:25.520Z,6.10
2022-09-23T05:28:53.910Z,6.20
2022-09-23T05:31:22.990Z,6.30
2022-09-23T05:34:02.349Z,6.40
2022-09-23T05:36:36.965Z,6.50
2022-09-23T05:39:05.701Z,6.60
2022-09-23T05:41:33.822Z,6.50
2022-09-23T05:44:00.852Z,6.50
2022-09-23T05:46:29.527Z,6.50
2022-09-23T05:49:02.061Z,6.50
2022-09-23T05:51:31.289Z,6.70
2022-09-23T05:53:59.909Z,6.70
2022-09-23T05:56:28.045Z,6.80
2022-09-23T05:58:57.153Z,6.90
2022-09-23T06:01:26.661Z,6.90
2022-09-23T06:03:55.450Z,7.00
2022-09-23T06:06:30.710Z,7.20
2022-09-23T06:08:59.311Z,7.30
2022-09-23T06:11:29.237Z,7.40
2022-09-23T06:14:00.983Z,7.30
2022-09-23T06:16:29.320Z,7.50
2022-09-23T06:18:56.175Z,7.60
2022-09-23T06:21:22.889Z,7.70
2022-09-23T06:23:52.136Z,7.70
2022-09-23T06:26:21.000Z,7.80
2022-09-23T06:28:48.333Z,7.90
2022-09-23T06:31:16.391Z,7.90
2022-09-23T06:33:44.930Z,8.00
2022-09-23T06:36:14.795Z,8.10
2022-09-23T06:38:49.258Z,8.20
2022-09-23T06:41:16.438Z,8.40
2022-09-23T06:43:43.205Z,8.50
2022-09-23T06:46:15.005Z,8.60
2022-09-23T06:48:46.166Z,8.60
2022-09-23T06:51:20.327Z,8.70
2022-09-23T06:53:48.364Z,8.90
2022-09-23T06:56:17.268Z,8.90
2022-09-23T06:58:44.031Z,9.00
2022-09-23T07:01:15.992Z,9.10
2022-09-23T07:03:43.843Z,9.10
2022-09-23T07:06:11.165Z,9.20
2022-09-23T07:08:38.061Z,9.30
2022-09-23T07:11:07.034Z,9.40
2022-09-23T07:13:34.048Z,9.40
2022-09-23T07:16:02.184Z,9.50
2022-09-23T07:18:36.836Z,9.50
2022-09-23T07:21:15.827Z,9.60
2022-09-23T07:23:47.655Z,9.60
2022-09-23T07:26:14.875Z,9.70
2022-09-23T07:28:41.619Z,9.70
2022-09-23T07:31:13.908Z,9.80
2022-09-23T07:33:44.100Z,9.80
2022-09-23T07:36:14.329Z,9.80
2022-09-23T07:38:45.165Z,9.90
2022-09-23T07:41:14.861Z,10.00
2022-09-23T07:43:41.706Z,10.10
2022-09-23T07:46:11.889Z,10.30
2022-09-23T07:48:39.308Z,10.40
2022-09-23T07:51:08.211Z,10.50
2022-09-23T07:53:35.007Z,10.70
2022-09-23T07:56:04.545Z,10.90
2022-09-23T07:58:31.261Z,11.00
2022-09-23T08:01:06.930Z,11.10
2022-09-23T08:03:33.844Z,11.20
2022-09-23T08:06:12.382Z,11.30
2022-09-23T08:08:43.327Z,11.40
2022-09-23T08:11:12.126Z,11.50
2022-09-23T08:13:38.934Z,11.60
2022-09-23T08:16:06.468Z,11.70
2022-09-23T08:18:33.902Z,11.80
2022-09-23T08:21:01.162Z,11.90
2022-09-23T08:23:28.003Z,11.90
2022-09-23T08:26:00.117Z,12.00
2022-09-23T08:28:27.849Z,12.10
2022-09-23T08:30:55.438Z,12.20
2022-09-23T08:33:23.830Z,12.20
2022-09-23T08:35:52.105Z,12.40
2022-09-23T08:38:19.898Z,12.60
2022-09-23T08:40:49.488Z,12.60
2022-09-23T08:43:31.228Z,12.70
2022-09-23T08:46:01.578Z,12.90
2022-09-23T08:48:40.689Z,13.10
2022-09-23T08:51:12.707Z,13.20
2022-09-23T08:53:39.441Z,13.30
2022-09-23T08:56:13.194Z,13.40
2022-09-23T08:58:51.603Z,13.60
2022-09-23T09:01:49.589Z,13.70
2022-09-23T09:04:28.528Z,13.80
2022-09-23T09:07:31.804Z,13.90
2022-09-23T09:10:21.258Z,14.10
2022-09-23T09:12:50.776Z,14.10
2022-09-23T09:15:24.848Z,14.30
2022-09-23T09:18:18.428Z,14.60
2022-09-23T09:20:59.532Z,14.70
2022-09-23T09:23:35.322Z,14.90
2022-09-23T09:26:02.915Z,15.00
2022-09-23T09:28:42.074Z,14.90
2022-09-23T09:31:42.750Z,15.10
2022-09-23T09:34:32.649Z,15.50
2022-09-23T09:37:07.694Z,15.80
2022-09-23T09:39:36.256Z,16.10
2022-09-23T09:42:04.708Z,16.50
2022-09-23T09:44:37.024Z,16.70
2022-09-23T09:47:19.108Z,16.70
2022-09-23T09:49:53.908Z,16.60
2022-09-23T09:52:22.588Z,16.40
2022-09-23T09:54:51.011Z,16.50
2022-09-23T09:57:35.124Z,16.70
2022-09-23T10:00:21.477Z,16.80
2022-09-23T10:03:01.718Z,16.80
2022-09-23T10:05:33.867Z,16.70
2022-09-23T10:08:18.544Z,16.70
2022-09-23T10:10:58.996Z,16.80
2022-09-23T10:13:27.407Z,16.90
2022-09-23T10:15:55.086Z,16.90
2022-09-23T10:18:36.031Z,17.10
2022-09-23T10:21:12.120Z,17.10
2022-09-23T10:23:42.430Z,17.10
2022-09-23T10:26:12.073Z,17.20
2022-09-23T10:28:46.182Z,17.30
2022-09-23T10:31:32.177Z,17.60
2022-09-23T10:34:20.712Z,17.70
2022-09-23T10:37:09.654Z,17.80
2022-09-23T10:39:54.971Z,17.70
2022-09-23T10:43:04.908Z,17.60
2022-09-23T10:45:57.781Z,17.70
2022-09-23T10:48:35.877Z,17.90
2022-09-23T10:51:14.369Z,18.10
2022-09-23T10:54:00.333Z,18.20
2022-09-23T10:56:33.265Z,18.10
2022-09-23T10:59:35.957Z,18.30
2022-09-23T11:02:42.153Z,18.50
2022-09-23T11:05:28.799Z,18.70
2022-09-23T11:08:27.509Z,18.60
2022-09-23T11:11:08.864Z,18.50
2022-09-23T11:14:17.003Z,18.40
2022-09-23T11:17:08.266Z,18.50
2022-09-23T11:19:45.921Z,18.60
2022-09-23T11:22:36.170Z,18.90
2022-09-23T11:25:02.897Z,19.10
2022-09-23T11:27:35.709Z,19.40
2022-09-23T11:30:08.381Z,19.40
2022-09-23T11:33:05.202Z,19.50
2022-09-23T11:35:48.506Z,19.50
2022-09-23T11:38:25.948Z,19.60
2022-09-23T11:41:02.749Z,19.70
2022-09-23T11:43:36.377Z,19.80
2022-09-23T11:46:28.724Z,20.00
2022-09-23T11:49:07.473Z,19.80
2022-09-23T11:51:49.182Z,19.70
2022-09-23T11:54:26.144Z,19.80
2022-09-23T11:56:58.717Z,19.70
2022-09-23T12:03:03.705Z,19.90
2022-09-23T12:05:44.438Z,20.10
2022-09-23T12:08:22.411Z,20.00
2022-09-23T12:11:06.522Z,20.00
2022-09-23T12:13:52.374Z,20.10
2022-09-23T12:16:30.817Z,20.00
2022-09-23T12:19:19.424Z,20.00
2022-09-23T12:21:59.347Z,19.80
2022-09-23T12:24:46.288Z,20.00
2022-09-23T12:27:37.876Z,20.30
2022-09-23T12:30:26.556Z,20.40
2022-09-23T12:33:06.988Z,20.50
2022-09-23T12:35:41.321Z,20.40
2022-09-23T12:38:30.843Z,20.40
2022-09-23T12:40:57.763Z,20.30
2022-09-23T12:43:34.441Z,20.30
2022-09-23T12:46:23.540Z,20.30
2022-09-23T12:48:59.936Z,20.50
2022-09-23T12:51:29.295Z,20.50
2022-09-23T12:54:05.115Z,20.50
2022-09-23T12:56:37.596Z,20.50
2022-09-23T12:59:16.544Z,20.40
2022-09-23T13:01:44.426Z,20.40
2022-09-23T13:04:49.882Z,20.40
2022-09-23T13:07:22.734Z,20.90
2022-09-23T13:09:52.869Z,21.10
2022-09-23T13:12:32.460Z,21.00
2022-09-23T13:15:03.653Z,20.80
2022-09-23T13:17:30.334Z,21.10
2022-09-23T13:20:36.546Z,21.20
2022-09-23T13:23:20.284Z,21.50
2022-09-23T13:25:48.109Z,21.80
2022-09-23T13:28:34.096Z,22.10
2022-09-23T13:31:14.824Z,21.90
2022-09-23T13:33:54.501Z,21.80
2022-09-23T13:36:21.256Z,21.90
2022-09-23T13:38:48.345Z,22.00
2022-09-23T13:41:25.139Z,21.70
2022-09-23T13:43:58.583Z,21.10
2022-09-23T13:46:34.244Z,20.90
2022-09-23T13:49:01.152Z,20.90
2022-09-23T13:51:33.558Z,21.00
2022-09-23T13:54:03.613Z,21.10
2022-09-23T13:56:32.948Z,21.10
2022-09-23T13:59:26.324Z,20.70
2022-09-23T14:02:20.033Z,20.20
2022-09-23T14:04:47.147Z,19.80
2022-09-23T14:07:16.594Z,19.60
2022-09-23T14:09:47.213Z,19.40
2022-09-23T14:12:15.034Z,19.40
2022-09-23T14:14:43.295Z,18.90
2022-09-23T14:17:16.785Z,18.90
2022-09-23T14:19:44.053Z,19.00
2022-09-23T14:22:28.907Z,19.00
2022-09-23T14:24:57.311Z,19.10
2022-09-23T14:27:32.309Z,19.10
2022-09-23T14:30:02.188Z,19.00
2022-09-23T14:32:30.065Z,18.90
2022-09-23T14:35:00.086Z,19.00
2022-09-23T14:37:57.569Z,18.90
2022-09-23T14:40:29.081Z,18.90
2022-09-23T14:43:14.569Z,18.90
2022-09-23T14:45:45.310Z,18.80
2022-09-23T14:48:18.880Z,18.70
2022-09-23T14:50:54.319Z,18.50
2022-09-23T14:53:23.860Z,18.50
2022-09-23T14:56:06.664Z,18.50
2022-09-23T14:58:57.311Z,18.50
2022-09-23T15:01:35.550Z,18.50
2022-09-23T15:04:37.747Z,18.30
2022-09-23T15:07:16.797Z,18.10
2022-09-23T15:09:45.368Z,18.00
2022-09-23T15:12:15.213Z,18.00
2022-09-23T15:14:46.577Z,18.10
2022-09-23T15:17:34.715Z,18.20
2022-09-23T15:20:05.804Z,18.20
2022-09-23T15:22:42.654Z,18.10
2022-09-23T15:25:40.158Z,18.10
2022-09-23T15:28:12.738Z,18.00
2022-09-23T15:30:39.754Z,17.90
2022-09-23T15:33:06.663Z,17.90
2022-09-23T15:35:33.585Z,17.70
2022-09-23T15:38:02.174Z,17.60
2022-09-23T15:40:33.292Z,17.60
2022-09-23T15:43:27.197Z,17.60
2022-09-23T15:45:57.580Z,17.60
2022-09-23T15:48:57.819Z,17.50
2022-09-23T15:51:26.668Z,17.50
2022-09-23T15:53:55.192Z,17.30
2022-09-23T15:56:23.377Z,17.20
2022-09-23T15:58:51.110Z,17.00
2022-09-23T16:01:23.786Z,16.80
2022-09-23T16:03:50.890Z,16.60
2022-09-23T16:06:18.015Z,16.60
2022-09-23T16:08:45.274Z,16.60
2022-09-23T16:11:20.389Z,16.60
2022-09-23T16:13:48.060Z,16.50
2022-09-23T16:16:15.390Z,16.40
2022-09-23T16:18:43.834Z,16.40
2022-09-23T16:21:16.256Z,16.40
2022-09-23T16:23:47.358Z,16.40
2022-09-23T16:26:29.544Z,16.40
2022-09-23T16:28:58.105Z,16.30
2022-09-23T16:31:26.910Z,16.20
2022-09-23T16:33:54.175Z,16.10
2022-09-23T16:36:33.144Z,16.20
2022-09-23T16:39:05.257Z,16.10
2022-09-23T16:41:34.099Z,15.90
2022-09-23T16:44:02.648Z,15.70
2022-09-23T16:46:31.591Z,15.60
2022-09-23T16:49:00.401Z,15.60
2022-09-23T16:51:30.715Z,15.60
2022-09-23T16:53:59.488Z,15.40
2022-09-23T16:56:29.210Z,15.40
2022-09-23T16:58:56.906Z,15.20
2022-09-23T17:01:45.450Z,15.10
2022-09-23T17:04:14.170Z,15.00
2022-09-23T17:06:51.948Z,14.80
2022-09-23T17:09:20.706Z,14.70
2022-09-23T17:11:58.714Z,14.70
2022-09-23T17:14:26.067Z,14.60
2022-09-23T17:16:53.104Z,14.50
2022-09-23T17:19:20.020Z,14.50
2022-09-23T17:21:46.854Z,14.40
2022-09-23T17:24:13.906Z,14.20
2022-09-23T17:26:41.001Z,14.10
2022-09-23T17:29:10.130Z,14.20
2022-09-23T17:31:36.851Z,14.20
2022-09-23T17:34:03.660Z,14.10
2022-09-23T17:36:30.387Z,13.90
2022-09-23T17:38:57.158Z,13.80
2022-09-23T17:41:24.275Z,13.80
2022-09-23T17:43:56.616Z,13.80
2022-09-23T17:46:23.809Z,13.90
2022-09-23T17:48:55.700Z,13.80
2022-09-23T17:51:24.015Z,13.80
2022-09-23T17:53:51.322Z,13.80
2022-09-23T17:56:24.977Z,13.70
2022-09-23T17:58:53.411Z,13.70
2022-09-23T18:01:25.103Z,13.80
2022-09-23T18:03:56.634Z,13.70
2022-09-23T18:06:25.025Z,13.60
2022-09-23T18:08:52.916Z,13.60
2022-09-23T18:11:30.705Z,13.50
2022-09-23T18:14:00.356Z,13.50
2022-09-23T18:16:34.114Z,13.40
2022-09-23T18:19:02.096Z,13.20
2022-09-23T18:21:37.348Z,13.20
2022-09-23T18:24:28.530Z,13.20
2022-09-23T18:26:51.273Z,13.20
2022-09-23T18:29:18.536Z,13.20
2022-09-23T18:31:47.396Z,13.20
2022-09-23T18:34:18.981Z,13.20
2022-09-23T18:36:45.711Z,13.10
2022-09-23T18:39:12.794Z,13.10
2022-09-23T18:41:40.635Z,13.10
2022-09-23T18:44:07.438Z,13.00
2022-09-23T18:46:34.281Z,13.00
2022-09-23T18:49:19.873Z,12.90
2022-09-23T18:51:57.210Z,12.90
2022-09-23T18:54:26.052Z,12.70
2022-09-23T18:56:52.895Z,12.70
2022-09-23T18:59:23.770Z,12.50
2022-09-23T19:01:51.050Z,12.60
2022-09-23T19:04:20.189Z,12.60
2022-09-23T19:06:47.699Z,12.60
2022-09-23T19:09:15.761Z,12.50
2022-09-23T19:11:42.902Z,12.50
2022-09-23T19:14:11.426Z,12.50
2022-09-23T19:16:40.140Z,12.50
2022-09-23T19:19:07.551Z,12.50
2022-09-23T19:21:34.852Z,12.40
2022-09-23T19:24:07.640Z,12.40
2022-09-23T19:26:40.451Z,12.40
2022-09-23T19:29:08.718Z,12.30
2022-09-23T19:31:40.403Z,12.30
2022-09-23T19:34:12.511Z,12.20
2022-09-23T19:36:42.141Z,12.20
2022-09-23T19:39:17.244Z,12.10
2022-09-23T19:41:44.519Z,12.20
2022-09-23T19:44:11.881Z,12.10
2022-09-23T19:46:42.844Z,12.00
2022-09-23T19:49:11.094Z,12.10
2022-09-23T19:51:41.515Z,12.10
2022-09-23T19:54:09.264Z,12.00
2022-09-23T19:56:36.389Z,12.00
2022-09-23T19:59:06.791Z,12.00
2022-09-23T20:01:34.436Z,12.00
2022-09-23T20:04:01.952Z,12.00
2022-09-23T20:06:34.117Z,11.90
2022-09-23T20:09:01.823Z,11.80
2022-09-23T20:11:29.884Z,11.80
2022-09-23T20:14:01.210Z,11.70
2022-09-23T20:16:31.994Z,11.70
2022-09-23T20:18:59.891Z,11.60
2022-09-23T20:21:28.255Z,11.60
2022-09-23T20:23:56.118Z,11.50
2022-09-23T20:26:41.761Z,11.50
2022-09-23T20:29:10.755Z,11.30
2022-09-23T20:31:40.547Z,11.30
2022-09-23T20:34:08.409Z,11.30
2022-09-23T20:36:36.269Z,11.20
2022-09-23T20:39:25.351Z,11.30
2022-09-23T20:41:53.008Z,11.30
2022-09-23T20:44:19.739Z,11.40
2022-09-23T20:46:48.854Z,11.40
2022-09-23T20:49:17.186Z,11.50
2022-09-23T20:51:44.162Z,11.50
2022-09-23T20:54:12.151Z,11.50
2022-09-23T20:56:39.118Z,11.30
2022-09-23T20:59:06.041Z,11.10
2022-09-23T21:01:36.946Z,11.20
2022-09-23T21:04:05.874Z,11.20
2022-09-23T21:06:35.430Z,11.10
2022-09-23T21:09:02.685Z,11.10
2022-09-23T21:11:30.013Z,11.10
2022-09-23T21:13:58.680Z,11.20
2022-09-23T21:16:25.887Z,11.30
2022-09-23T21:18:52.896Z,11.30
2022-09-23T21:21:22.141Z,11.30
2022-09-23T21:23:50.134Z,11.30
2022-09-23T21:26:20.081Z,11.40
2022-09-23T21:28:48.955Z,11.40
2022-09-23T21:31:25.347Z,11.30
2022-09-23T21:34:00.367Z,11.30
2022-09-23T21:36:32.692Z,11.20
2022-09-23T21:39:01.716Z,11.20
2022-09-23T21:41:28.553Z,11.30
2022-09-23T21:43:56.294Z,11.30
2022-09-23T21:46:23.679Z,11.40
2022-09-23T21:48:53.660Z,11.40
2022-09-23T21:51:23.189Z,11.40
2022-09-23T21:53:50.057Z,11.40
2022-09-23T21:56:21.019Z,11.40
2022-09-23T21:58:48.149Z,11.40
2022-09-23T22:01:20.572Z,11.30
2022-09-23T22:03:56.461Z,11.30
2022-09-23T22:06:26.967Z,11.20
2022-09-23T22:08:55.712Z,11.10
2022-09-23T22:11:42.353Z,11.20
2022-09-23T22:14:11.628Z,11.20
2022-09-23T22:16:39.312Z,11.20
2022-09-23T22:19:07.105Z,11.20
2022-09-23T22:21:36.560Z,11.20
2022-09-23T22:24:05.780Z,11.20
2022-09-23T22:26:38.622Z,11.20
2022-09-23T22:29:26.021Z,11.20
2022-09-23T22:32:11.297Z,11.20
2022-09-23T22:34:49.379Z,11.20
2022-09-23T22:37:25.469Z,11.10
2022-09-23T22:39:52.274Z,11.10
2022-09-23T22:42:21.940Z,11.10
2022-09-23T22:44:49.427Z,11.10
2022-09-23T22:47:17.897Z,11.20
2022-09-23T22:49:45.733Z,11.10
2022-09-23T22:52:12.641Z,11.20
2022-09-23T22:54:39.361Z,11.20
2022-09-23T22:57:10.222Z,11.10
2022-09-23T22:59:37.839Z,11.20
2022-09-23T23:02:06.577Z,11.20
2022-09-23T23:04:33.525Z,11.20
2022-09-23T23:07:00.232Z,11.30
2022-09-23T23:09:27.001Z,11.20
2022-09-23T23:11:53.720Z,11.30
2022-09-23T23:14:20.708Z,11.20
2022-09-23T23:16:47.621Z,11.20
2022-09-23T23:19:17.159Z,11.20
2022-09-23T23:21:45.446Z,11.20
2022-09-23T23:24:23.634Z,11.20
2022-09-23T23:26:51.383Z,11.30
2022-09-23T23:29:19.646Z,11.20
2022-09-23T23:31:47.303Z,11.20
2022-09-23T23:34:16.852Z,11.20
2022-09-23T23:36:45.658Z,11.20
2022-09-23T23:39:13.324Z,11.20
2022-09-23T23:41:41.597Z,11.20
2022-09-23T23:44:08.776Z,11.30
2022-09-23T23:46:37.205Z,11.30
2022-09-23T23:49:04.923Z,11.10
2022-09-23T23:51:31.657Z,11.00
2022-09-23T23:53:59.447Z,11.00
2022-09-23T23:56:27.037Z,11.00
2022-09-23T23:58:55.467Z,11.20
